sensor_id;sensor_type;location;lat;lon;timestamp;pressure;altitude;pressure_sealevel;temperature;humidity
46087;BME280;31824;49.648;8.640;2023-07-24T00:02:56;99509.16;;;19.40;100.00
46087;BME280;31824;49.648;8.640;2023-07-24T00:06:00;99506.84;;;19.48;100.00
46087;BME280;31824;49.648;8.640;2023-07-24T00:09:02;99505.38;;;19.54;100.00
46087;BME280;31824;49.648;8.640;2023-07-24T00:12:04;99502.41;;;19.48;100.00
46087;BME280;31824;49.648;8.640;2023-07-24T00:15:07;99505.72;;;19.43;100.00
46087;BME280;31824;49.648;8.640;2023-07-24T00:18:10;99512.56;;;19.37;100.00
46087;BME280;31824;49.648;8.640;2023-07-24T00:21:12;99510.75;;;19.36;100.00
46087;BME280;31824;49.648;8.640;2023-07-24T00:24:15;99504.03;;;19.25;100.00
46087;BME280;31824;49.648;8.640;2023-07-24T00:27:17;99505.72;;;19.23;100.00
46087;BME280;31824;49.648;8.640;2023-07-24T00:30:19;99503.41;;;19.50;100.00
46087;BME280;31824;49.648;8.640;2023-07-24T00:33:22;99510.41;;;19.68;100.00
46087;BME280;31824;49.648;8.640;2023-07-24T00:36:24;99510.16;;;20.02;100.00
46087;BME280;31824;49.648;8.640;2023-07-24T00:39:26;99507.63;;;20.48;100.00
46087;BME280;31824;49.648;8.640;2023-07-24T00:42:31;99501.00;;;20.38;100.00
46087;BME280;31824;49.648;8.640;2023-07-24T00:45:33;99503.16;;;20.26;100.00
46087;BME280;31824;49.648;8.640;2023-07-24T00:48:36;99488.78;;;20.22;100.00
46087;BME280;31824;49.648;8.640;2023-07-24T00:51:41;99492.03;;;20.15;100.00
46087;BME280;31824;49.648;8.640;2023-07-24T00:54:43;99482.81;;;20.50;100.00
46087;BME280;31824;49.648;8.640;2023-07-24T00:57:47;99488.09;;;20.49;100.00
46087;BME280;31824;49.648;8.640;2023-07-24T01:00:50;99482.31;;;20.59;100.00
46087;BME280;31824;49.648;8.640;2023-07-24T01:03:54;99480.88;;;20.67;100.00
46087;BME280;31824;49.648;8.640;2023-07-24T01:06:59;99480.97;;;20.69;100.00
46087;BME280;31824;49.648;8.640;2023-07-24T01:10:03;99476.66;;;20.51;100.00
46087;BME280;31824;49.648;8.640;2023-07-24T01:13:07;99477.44;;;20.49;100.00
46087;BME280;31824;49.648;8.640;2023-07-24T01:16:18;99475.94;;;20.55;100.00
46087;BME280;31824;49.648;8.640;2023-07-24T01:19:35;99468.03;;;20.36;100.00
46087;BME280;31824;49.648;8.640;2023-07-24T01:22:39;99456.03;;;20.26;100.00
46087;BME280;31824;49.648;8.640;2023-07-24T01:25:53;99455.59;;;20.36;100.00
46087;BME280;31824;49.648;8.640;2023-07-24T01:28:56;99453.47;;;20.50;100.00
46087;BME280;31824;49.648;8.640;2023-07-24T01:31:57;99440.81;;;20.45;100.00
46087;BME280;31824;49.648;8.640;2023-07-24T01:34:59;99433.09;;;20.30;100.00
46087;BME280;31824;49.648;8.640;2023-07-24T01:38:04;99440.66;;;20.19;100.00
46087;BME280;31824;49.648;8.640;2023-07-24T01:41:07;99439.25;;;20.29;100.00
46087;BME280;31824;49.648;8.640;2023-07-24T01:44:12;99434.59;;;20.23;100.00
46087;BME280;31824;49.648;8.640;2023-07-24T01:47:14;99456.78;;;20.01;100.00
46087;BME280;31824;49.648;8.640;2023-07-24T01:50:16;99442.88;;;19.87;100.00
46087;BME280;31824;49.648;8.640;2023-07-24T01:53:18;99441.50;;;19.77;100.00
46087;BME280;31824;49.648;8.640;2023-07-24T01:56:22;99435.66;;;19.84;100.00
46087;BME280;31824;49.648;8.640;2023-07-24T01:59:24;99422.56;;;19.90;100.00
46087;BME280;31824;49.648;8.640;2023-07-24T02:02:25;99388.47;;;19.82;100.00
46087;BME280;31824;49.648;8.640;2023-07-24T02:05:27;99393.47;;;20.18;100.00
46087;BME280;31824;49.648;8.640;2023-07-24T02:08:30;99375.63;;;20.38;100.00
46087;BME280;31824;49.648;8.640;2023-07-24T02:11:33;99379.16;;;20.60;100.00
46087;BME280;31824;49.648;8.640;2023-07-24T02:14:35;99376.53;;;20.84;100.00
46087;BME280;31824;49.648;8.640;2023-07-24T02:17:37;99388.84;;;20.80;100.00
46087;BME280;31824;49.648;8.640;2023-07-24T02:20:38;99389.66;;;20.78;100.00
46087;BME280;31824;49.648;8.640;2023-07-24T02:23:40;99400.16;;;20.73;100.00
46087;BME280;31824;49.648;8.640;2023-07-24T02:26:43;99396.13;;;20.62;100.00
46087;BME280;31824;49.648;8.640;2023-07-24T02:29:46;99400.91;;;20.48;100.00
46087;BME280;31824;49.648;8.640;2023-07-24T02:32:47;99404.94;;;20.59;100.00
46087;BME280;31824;49.648;8.640;2023-07-24T02:35:51;99401.81;;;20.26;100.00
46087;BME280;31824;49.648;8.640;2023-07-24T02:38:54;99397.28;;;20.02;100.00
46087;BME280;31824;49.648;8.640;2023-07-24T02:41:58;99396.44;;;19.62;100.00
46087;BME280;31824;49.648;8.640;2023-07-24T02:45:00;99396.78;;;19.49;100.00
46087;BME280;31824;49.648;8.640;2023-07-24T02:48:04;99393.38;;;19.32;100.00
46087;BME280;31824;49.648;8.640;2023-07-24T02:51:06;99389.16;;;19.17;100.00
46087;BME280;31824;49.648;8.640;2023-07-24T02:54:07;99392.75;;;19.18;100.00
46087;BME280;31824;49.648;8.640;2023-07-24T02:57:11;99397.16;;;19.17;100.00
46087;BME280;31824;49.648;8.640;2023-07-24T03:00:13;99391.91;;;18.99;100.00
46087;BME280;31824;49.648;8.640;2023-07-24T03:03:15;99384.22;;;18.87;100.00
46087;BME280;31824;49.648;8.640;2023-07-24T03:06:17;99375.34;;;18.87;100.00
46087;BME280;31824;49.648;8.640;2023-07-24T03:09:18;99380.03;;;18.73;100.00
46087;BME280;31824;49.648;8.640;2023-07-24T03:12:22;99383.94;;;18.62;100.00
46087;BME280;31824;49.648;8.640;2023-07-24T03:15:24;99361.03;;;18.46;100.00
46087;BME280;31824;49.648;8.640;2023-07-24T03:18:26;99357.72;;;18.32;100.00
46087;BME280;31824;49.648;8.640;2023-07-24T03:21:27;99347.84;;;18.29;100.00
46087;BME280;31824;49.648;8.640;2023-07-24T03:24:29;99351.97;;;18.22;100.00
46087;BME280;31824;49.648;8.640;2023-07-24T03:27:32;99357.72;;;18.32;100.00
46087;BME280;31824;49.648;8.640;2023-07-24T03:30:35;99354.34;;;18.54;100.00
46087;BME280;31824;49.648;8.640;2023-07-24T03:33:37;99343.56;;;18.70;100.00
46087;BME280;31824;49.648;8.640;2023-07-24T03:36:39;99348.13;;;18.73;100.00
46087;BME280;31824;49.648;8.640;2023-07-24T03:39:43;99336.84;;;18.79;100.00
46087;BME280;31824;49.648;8.640;2023-07-24T03:42:46;99324.31;;;18.76;100.00
46087;BME280;31824;49.648;8.640;2023-07-24T03:45:49;99324.72;;;18.85;100.00
46087;BME280;31824;49.648;8.640;2023-07-24T03:48:52;99327.13;;;18.99;100.00
46087;BME280;31824;49.648;8.640;2023-07-24T03:51:54;99331.88;;;19.06;100.00
46087;BME280;31824;49.648;8.640;2023-07-24T03:54:55;99335.44;;;19.06;100.00
46087;BME280;31824;49.648;8.640;2023-07-24T03:57:58;99327.94;;;19.17;100.00
46087;BME280;31824;49.648;8.640;2023-07-24T04:01:00;99316.66;;;19.23;100.00
46087;BME280;31824;49.648;8.640;2023-07-24T04:04:02;99310.38;;;19.42;100.00
46087;BME280;31824;49.648;8.640;2023-07-24T04:07:05;99302.69;;;19.29;100.00
46087;BME280;31824;49.648;8.640;2023-07-24T04:10:07;99314.97;;;19.25;100.00
46087;BME280;31824;49.648;8.640;2023-07-24T04:13:10;99317.13;;;19.34;100.00
46087;BME280;31824;49.648;8.640;2023-07-24T04:16:12;99317.50;;;19.43;100.00
46087;BME280;31824;49.648;8.640;2023-07-24T04:19:14;99302.25;;;19.60;100.00
46087;BME280;31824;49.648;8.640;2023-07-24T04:22:15;99288.00;;;19.60;100.00
46087;BME280;31824;49.648;8.640;2023-07-24T04:25:17;99289.81;;;19.61;100.00
46087;BME280;31824;49.648;8.640;2023-07-24T04:28:39;99292.56;;;19.83;100.00
46087;BME280;31824;49.648;8.640;2023-07-24T04:31:42;99305.78;;;20.26;100.00
46087;BME280;31824;49.648;8.640;2023-07-24T04:34:44;99302.41;;;20.30;100.00
46087;BME280;31824;49.648;8.640;2023-07-24T04:37:46;99314.28;;;20.38;100.00
46087;BME280;31824;49.648;8.640;2023-07-24T04:40:48;99327.13;;;20.48;100.00
46087;BME280;31824;49.648;8.640;2023-07-24T04:43:51;99327.56;;;20.36;100.00
46087;BME280;31824;49.648;8.640;2023-07-24T04:46:52;99323.84;;;20.33;100.00
46087;BME280;31824;49.648;8.640;2023-07-24T04:49:54;99320.09;;;20.28;100.00
46087;BME280;31824;49.648;8.640;2023-07-24T04:52:57;99322.59;;;20.23;100.00
46087;BME280;31824;49.648;8.640;2023-07-24T04:56:01;99308.56;;;20.29;100.00
46087;BME280;31824;49.648;8.640;2023-07-24T04:59:05;99302.44;;;20.08;100.00
46087;BME280;31824;49.648;8.640;2023-07-24T05:02:06;99316.28;;;20.21;100.00
46087;BME280;31824;49.648;8.640;2023-07-24T05:05:09;99320.03;;;20.03;100.00
46087;BME280;31824;49.648;8.640;2023-07-24T05:08:28;99323.13;;;20.14;100.00
46087;BME280;31824;49.648;8.640;2023-07-24T05:11:30;99311.19;;;20.27;100.00
46087;BME280;31824;49.648;8.640;2023-07-24T05:14:33;99308.81;;;20.35;100.00
46087;BME280;31824;49.648;8.640;2023-07-24T05:17:35;99305.31;;;20.36;100.00
46087;BME280;31824;49.648;8.640;2023-07-24T05:20:37;99308.72;;;20.56;100.00
46087;BME280;31824;49.648;8.640;2023-07-24T05:23:38;99299.47;;;20.69;100.00
46087;BME280;31824;49.648;8.640;2023-07-24T05:26:40;99297.69;;;20.69;100.00
46087;BME280;31824;49.648;8.640;2023-07-24T05:29:43;99293.50;;;20.53;100.00
46087;BME280;31824;49.648;8.640;2023-07-24T05:32:46;99298.06;;;20.32;100.00
46087;BME280;31824;49.648;8.640;2023-07-24T05:35:48;99299.09;;;20.37;100.00
46087;BME280;31824;49.648;8.640;2023-07-24T05:38:51;99307.03;;;20.58;100.00
46087;BME280;31824;49.648;8.640;2023-07-24T05:41:53;99302.50;;;20.55;100.00
46087;BME280;31824;49.648;8.640;2023-07-24T05:44:56;99304.44;;;20.60;100.00
46087;BME280;31824;49.648;8.640;2023-07-24T05:47:58;99309.31;;;20.70;100.00
46087;BME280;31824;49.648;8.640;2023-07-24T05:51:00;99322.91;;;20.78;100.00
46087;BME280;31824;49.648;8.640;2023-07-24T05:54:02;99328.19;;;20.76;100.00
46087;BME280;31824;49.648;8.640;2023-07-24T05:57:05;99319.56;;;20.83;100.00
46087;BME280;31824;49.648;8.640;2023-07-24T06:00:09;99328.66;;;20.88;100.00
46087;BME280;31824;49.648;8.640;2023-07-24T06:03:16;99334.00;;;20.88;100.00
46087;BME280;31824;49.648;8.640;2023-07-24T06:06:18;99348.94;;;20.83;100.00
46087;BME280;31824;49.648;8.640;2023-07-24T06:09:20;99353.66;;;20.90;100.00
46087;BME280;31824;49.648;8.640;2023-07-24T06:12:22;99351.78;;;20.88;100.00
46087;BME280;31824;49.648;8.640;2023-07-24T06:15:26;99347.75;;;20.99;100.00
46087;BME280;31824;49.648;8.640;2023-07-24T06:18:28;99344.19;;;20.99;100.00
46087;BME280;31824;49.648;8.640;2023-07-24T06:21:30;99342.41;;;20.99;100.00
46087;BME280;31824;49.648;8.640;2023-07-24T06:24:32;99333.09;;;21.12;100.00
46087;BME280;31824;49.648;8.640;2023-07-24T06:27:34;99332.13;;;21.10;100.00
46087;BME280;31824;49.648;8.640;2023-07-24T06:30:38;99328.59;;;21.11;100.00
46087;BME280;31824;49.648;8.640;2023-07-24T06:33:40;99334.28;;;21.20;100.00
46087;BME280;31824;49.648;8.640;2023-07-24T06:36:41;99332.09;;;21.34;100.00
46087;BME280;31824;49.648;8.640;2023-07-24T06:39:43;99329.94;;;21.50;100.00
46087;BME280;31824;49.648;8.640;2023-07-24T06:42:45;99339.50;;;21.43;100.00
46087;BME280;31824;49.648;8.640;2023-07-24T06:45:49;99335.34;;;21.51;100.00
46087;BME280;31824;49.648;8.640;2023-07-24T06:48:50;99336.53;;;21.59;100.00
46087;BME280;31824;49.648;8.640;2023-07-24T06:51:52;99336.84;;;21.69;100.00
46087;BME280;31824;49.648;8.640;2023-07-24T06:54:54;99331.69;;;21.73;100.00
46087;BME280;31824;49.648;8.640;2023-07-24T06:57:56;99320.41;;;21.84;100.00
46087;BME280;31824;49.648;8.640;2023-07-24T07:00:59;99317.97;;;21.90;100.00
46087;BME280;31824;49.648;8.640;2023-07-24T07:04:02;99317.59;;;22.06;100.00
46087;BME280;31824;49.648;8.640;2023-07-24T07:07:04;99323.00;;;22.08;100.00
46087;BME280;31824;49.648;8.640;2023-07-24T07:10:07;99319.44;;;22.07;100.00
46087;BME280;31824;49.648;8.640;2023-07-24T07:13:08;99304.00;;;22.28;100.00
46087;BME280;31824;49.648;8.640;2023-07-24T07:16:11;99299.47;;;22.25;100.00
46087;BME280;31824;49.648;8.640;2023-07-24T07:19:13;99305.00;;;22.31;100.00
46087;BME280;31824;49.648;8.640;2023-07-24T07:22:15;99309.28;;;22.26;100.00
46087;BME280;31824;49.648;8.640;2023-07-24T07:25:17;99317.03;;;22.44;100.00
46087;BME280;31824;49.648;8.640;2023-07-24T07:28:19;99315.16;;;22.72;100.00
46087;BME280;31824;49.648;8.640;2023-07-24T07:31:22;99318.84;;;22.75;100.00
46087;BME280;31824;49.648;8.640;2023-07-24T07:34:24;99320.53;;;22.72;100.00
46087;BME280;31824;49.648;8.640;2023-07-24T07:37:27;99320.25;;;22.93;100.00
46087;BME280;31824;49.648;8.640;2023-07-24T07:40:29;99320.38;;;22.98;100.00
46087;BME280;31824;49.648;8.640;2023-07-24T07:43:31;99315.09;;;23.01;100.00
46087;BME280;31824;49.648;8.640;2023-07-24T07:46:34;99327.84;;;23.09;100.00
46087;BME280;31824;49.648;8.640;2023-07-24T07:49:36;99326.69;;;23.00;100.00
46087;BME280;31824;49.648;8.640;2023-07-24T07:52:38;99325.72;;;22.98;100.00
46087;BME280;31824;49.648;8.640;2023-07-24T07:55:40;99333.44;;;23.17;100.00
46087;BME280;31824;49.648;8.640;2023-07-24T07:58:42;99323.50;;;23.13;100.00
46087;BME280;31824;49.648;8.640;2023-07-24T08:01:45;99319.25;;;23.21;100.00
46087;BME280;31824;49.648;8.640;2023-07-24T08:04:47;99318.44;;;23.24;100.00
46087;BME280;31824;49.648;8.640;2023-07-24T08:07:49;99315.81;;;23.25;100.00
46087;BME280;31824;49.648;8.640;2023-07-24T08:10:51;99318.38;;;23.21;100.00
46087;BME280;31824;49.648;8.640;2023-07-24T08:13:52;99318.66;;;23.32;100.00
46087;BME280;31824;49.648;8.640;2023-07-24T08:16:56;99321.81;;;23.17;100.00
46087;BME280;31824;49.648;8.640;2023-07-24T08:19:58;99322.84;;;23.22;100.00
46087;BME280;31824;49.648;8.640;2023-07-24T08:22:59;99317.63;;;23.26;100.00
46087;BME280;31824;49.648;8.640;2023-07-24T08:26:01;99302.22;;;23.18;100.00
46087;BME280;31824;49.648;8.640;2023-07-24T08:29:05;99295.84;;;23.14;100.00
46087;BME280;31824;49.648;8.640;2023-07-24T08:32:08;99290.97;;;23.01;100.00
46087;BME280;31824;49.648;8.640;2023-07-24T08:35:10;99292.19;;;22.80;100.00
46087;BME280;31824;49.648;8.640;2023-07-24T08:38:12;99294.16;;;22.87;100.00
46087;BME280;31824;49.648;8.640;2023-07-24T08:41:14;99294.25;;;22.89;100.00
46087;BME280;31824;49.648;8.640;2023-07-24T08:44:16;99284.38;;;22.88;100.00
46087;BME280;31824;49.648;8.640;2023-07-24T08:47:19;99290.81;;;22.95;100.00
46087;BME280;31824;49.648;8.640;2023-07-24T08:50:22;99288.66;;;23.13;100.00
46087;BME280;31824;49.648;8.640;2023-07-24T08:53:25;99286.56;;;23.35;100.00
46087;BME280;31824;49.648;8.640;2023-07-24T08:56:27;99299.44;;;23.48;100.00
46087;BME280;31824;49.648;8.640;2023-07-24T08:59:29;99294.38;;;23.60;100.00
46087;BME280;31824;49.648;8.640;2023-07-24T09:02:33;99305.47;;;23.74;100.00
46087;BME280;31824;49.648;8.640;2023-07-24T09:05:36;99305.19;;;23.99;100.00
46087;BME280;31824;49.648;8.640;2023-07-24T09:08:40;99306.34;;;24.08;100.00
46087;BME280;31824;49.648;8.640;2023-07-24T09:12:01;99291.16;;;24.10;100.00
46087;BME280;31824;49.648;8.640;2023-07-24T09:15:03;99278.03;;;24.24;100.00
46087;BME280;31824;49.648;8.640;2023-07-24T09:18:09;99267.72;;;24.43;100.00
46087;BME280;31824;49.648;8.640;2023-07-24T09:21:14;99257.66;;;24.33;100.00
46087;BME280;31824;49.648;8.640;2023-07-24T09:24:16;99242.94;;;24.15;100.00
46087;BME280;31824;49.648;8.640;2023-07-24T09:27:18;99227.31;;;23.96;100.00
46087;BME280;31824;49.648;8.640;2023-07-24T09:30:20;99224.81;;;23.65;100.00
46087;BME280;31824;49.648;8.640;2023-07-24T09:33:36;99215.56;;;23.54;100.00
46087;BME280;31824;49.648;8.640;2023-07-24T09:36:40;99218.81;;;23.40;100.00
46087;BME280;31824;49.648;8.640;2023-07-24T09:40:03;99229.44;;;23.36;100.00
46087;BME280;31824;49.648;8.640;2023-07-24T09:43:17;99237.53;;;23.39;100.00
46087;BME280;31824;49.648;8.640;2023-07-24T09:46:39;99242.03;;;23.40;100.00
46087;BME280;31824;49.648;8.640;2023-07-24T09:49:46;99244.22;;;23.21;100.00
46087;BME280;31824;49.648;8.640;2023-07-24T09:52:48;99252.13;;;23.15;100.00
46087;BME280;31824;49.648;8.640;2023-07-24T09:55:56;99258.34;;;23.14;100.00
46087;BME280;31824;49.648;8.640;2023-07-24T09:58:59;99252.13;;;23.15;100.00
46087;BME280;31824;49.648;8.640;2023-07-24T10:02:02;99253.03;;;23.16;100.00
46087;BME280;31824;49.648;8.640;2023-07-24T10:05:06;99250.38;;;23.17;100.00
46087;BME280;31824;49.648;8.640;2023-07-24T10:08:09;99244.19;;;23.20;100.00
46087;BME280;31824;49.648;8.640;2023-07-24T10:11:13;99235.09;;;23.13;100.00
46087;BME280;31824;49.648;8.640;2023-07-24T10:14:15;99257.47;;;23.15;100.00
46087;BME280;31824;49.648;8.640;2023-07-24T10:17:33;99268.31;;;23.20;100.00
46087;BME280;31824;49.648;8.640;2023-07-24T10:20:38;99253.22;;;23.23;100.00
46087;BME280;31824;49.648;8.640;2023-07-24T10:23:42;99258.53;;;23.20;100.00
46087;BME280;31824;49.648;8.640;2023-07-24T10:26:44;99256.63;;;23.16;100.00
46087;BME280;31824;49.648;8.640;2023-07-24T10:29:58;99235.81;;;23.07;100.00
46087;BME280;31824;49.648;8.640;2023-07-24T10:33:04;99245.91;;;23.16;100.00
46087;BME280;31824;49.648;8.640;2023-07-24T10:36:09;99248.13;;;23.33;100.00
46087;BME280;31824;49.648;8.640;2023-07-24T10:39:16;99249.94;;;23.34;100.00
46087;BME280;31824;49.648;8.640;2023-07-24T10:42:22;99252.22;;;23.53;100.00
46087;BME280;31824;49.648;8.640;2023-07-24T10:45:24;99253.47;;;23.68;100.00
46087;BME280;31824;49.648;8.640;2023-07-24T10:48:26;99247.47;;;23.80;100.00
46087;BME280;31824;49.648;8.640;2023-07-24T10:51:30;99240.63;;;23.91;100.00
46087;BME280;31824;49.648;8.640;2023-07-24T10:55:01;99235.47;;;24.00;100.00
46087;BME280;31824;49.648;8.640;2023-07-24T10:58:03;99234.38;;;23.92;100.00
46087;BME280;31824;49.648;8.640;2023-07-24T11:01:06;99233.94;;;24.12;100.00
46087;BME280;31824;49.648;8.640;2023-07-24T11:04:47;99243.91;;;24.17;100.00
46087;BME280;31824;49.648;8.640;2023-07-24T11:07:51;99243.16;;;24.24;100.00
46087;BME280;31824;49.648;8.640;2023-07-24T11:10:54;99237.88;;;24.27;100.00
46087;BME280;31824;49.648;8.640;2023-07-24T11:13:56;99241.63;;;24.36;100.00
46087;BME280;31824;49.648;8.640;2023-07-24T11:16:58;99234.91;;;24.56;100.00
46087;BME280;31824;49.648;8.640;2023-07-24T11:20:05;99224.03;;;24.50;100.00
46087;BME280;31824;49.648;8.640;2023-07-24T11:23:09;99220.44;;;24.50;100.00
46087;BME280;31824;49.648;8.640;2023-07-24T11:26:11;99217.66;;;24.45;100.00
46087;BME280;31824;49.648;8.640;2023-07-24T11:29:13;99225.00;;;24.54;100.00
46087;BME280;31824;49.648;8.640;2023-07-24T11:32:17;99226.63;;;24.46;100.00
46087;BME280;31824;49.648;8.640;2023-07-24T11:35:19;99224.00;;;24.49;100.00
46087;BME280;31824;49.648;8.640;2023-07-24T11:38:24;99218.03;;;24.62;100.00
46087;BME280;31824;49.648;8.640;2023-07-24T11:41:26;99213.69;;;24.69;100.00
46087;BME280;31824;49.648;8.640;2023-07-24T11:44:29;99210.47;;;24.88;100.00
46087;BME280;31824;49.648;8.640;2023-07-24T11:47:31;99223.69;;;24.77;100.00
46087;BME280;31824;49.648;8.640;2023-07-24T11:50:41;99214.34;;;24.58;100.00
46087;BME280;31824;49.648;8.640;2023-07-24T11:53:45;99215.91;;;24.47;100.00
46087;BME280;31824;49.648;8.640;2023-07-24T11:56:47;99197.56;;;24.26;100.00
46087;BME280;31824;49.648;8.640;2023-07-24T11:59:49;99196.41;;;24.13;100.00
46087;BME280;31824;49.648;8.640;2023-07-24T12:02:51;99204.19;;;24.01;100.00
46087;BME280;31824;49.648;8.640;2023-07-24T12:05:53;99199.84;;;24.06;100.00
46087;BME280;31824;49.648;8.640;2023-07-24T12:09:02;99193.00;;;24.22;100.00
46087;BME280;31824;49.648;8.640;2023-07-24T12:12:08;99180.81;;;24.38;100.00
46087;BME280;31824;49.648;8.640;2023-07-24T12:15:13;99183.88;;;24.56;100.00
46087;BME280;31824;49.648;8.640;2023-07-24T12:18:16;99193.91;;;24.65;100.00
46087;BME280;31824;49.648;8.640;2023-07-24T12:21:18;99178.31;;;24.47;100.00
46087;BME280;31824;49.648;8.640;2023-07-24T12:24:22;99171.72;;;24.31;100.00
46087;BME280;31824;49.648;8.640;2023-07-24T12:27:24;99165.66;;;24.40;100.00
46087;BME280;31824;49.648;8.640;2023-07-24T12:30:26;99167.22;;;24.28;100.00
46087;BME280;31824;49.648;8.640;2023-07-24T12:33:28;99171.03;;;24.40;100.00
46087;BME280;31824;49.648;8.640;2023-07-24T12:36:31;99183.75;;;24.96;100.00
46087;BME280;31824;49.648;8.640;2023-07-24T12:39:34;99171.38;;;25.58;100.00
46087;BME280;31824;49.648;8.640;2023-07-24T12:42:36;99167.81;;;25.60;100.00
46087;BME280;31824;49.648;8.640;2023-07-24T12:45:38;99173.72;;;25.36;100.00
46087;BME280;31824;49.648;8.640;2023-07-24T12:48:41;99161.88;;;25.26;100.00
46087;BME280;31824;49.648;8.640;2023-07-24T12:51:43;99158.13;;;25.15;100.00
46087;BME280;31824;49.648;8.640;2023-07-24T12:54:46;99156.22;;;25.09;100.00
46087;BME280;31824;49.648;8.640;2023-07-24T12:58:02;99145.09;;;24.86;100.00
46087;BME280;31824;49.648;8.640;2023-07-24T13:01:22;99150.25;;;24.74;100.00
46087;BME280;31824;49.648;8.640;2023-07-24T13:04:26;99150.81;;;24.59;100.00
46087;BME280;31824;49.648;8.640;2023-07-24T13:07:28;99148.41;;;24.71;100.00
46087;BME280;31824;49.648;8.640;2023-07-24T13:10:35;99137.91;;;24.85;100.00
46087;BME280;31824;49.648;8.640;2023-07-24T13:13:37;99145.06;;;24.85;100.00
46087;BME280;31824;49.648;8.640;2023-07-24T13:16:39;99156.06;;;25.00;100.00
46087;BME280;31824;49.648;8.640;2023-07-24T13:19:41;99144.00;;;25.28;100.00
46087;BME280;31824;49.648;8.640;2023-07-24T13:22:43;99137.41;;;25.08;100.00
46087;BME280;31824;49.648;8.640;2023-07-24T13:25:52;99129.84;;;24.85;100.00
46087;BME280;31824;49.648;8.640;2023-07-24T13:28:54;99115.81;;;25.58;100.00
46087;BME280;31824;49.648;8.640;2023-07-24T13:31:56;99108.75;;;25.67;100.00
46087;BME280;31824;49.648;8.640;2023-07-24T13:34:57;99094.09;;;25.44;100.00
46087;BME280;31824;49.648;8.640;2023-07-24T13:38:01;99078.38;;;25.14;100.00
46087;BME280;31824;49.648;8.640;2023-07-24T13:41:05;99070.41;;;25.83;100.00
46087;BME280;31824;49.648;8.640;2023-07-24T13:44:07;99083.13;;;25.97;100.00
46087;BME280;31824;49.648;8.640;2023-07-24T13:47:09;99085.06;;;25.39;100.00
46087;BME280;31824;49.648;8.640;2023-07-24T13:50:11;99074.94;;;25.23;100.00
46087;BME280;31824;49.648;8.640;2023-07-24T13:53:14;99056.25;;;24.75;100.00
46087;BME280;31824;49.648;8.640;2023-07-24T13:56:18;99049.88;;;24.69;100.00
46087;BME280;31824;49.648;8.640;2023-07-24T13:59:24;99048.06;;;24.68;100.00
46087;BME280;31824;49.648;8.640;2023-07-24T14:02:26;99047.16;;;24.66;100.00
46087;BME280;31824;49.648;8.640;2023-07-24T14:05:28;99045.13;;;24.55;100.00
46087;BME280;31824;49.648;8.640;2023-07-24T14:08:30;99037.03;;;24.52;100.00
46087;BME280;31824;49.648;8.640;2023-07-24T14:11:33;99012.72;;;24.43;100.00
46087;BME280;31824;49.648;8.640;2023-07-24T14:14:35;99000.88;;;24.32;100.00
46087;BME280;31824;49.648;8.640;2023-07-24T14:17:37;99054.38;;;24.22;100.00
46087;BME280;31824;49.648;8.640;2023-07-24T14:20:39;99084.56;;;24.10;100.00
46087;BME280;31824;49.648;8.640;2023-07-24T14:23:42;99117.63;;;21.67;100.00
46087;BME280;31824;49.648;8.640;2023-07-24T14:26:45;99132.41;;;21.00;100.00
46087;BME280;31824;49.648;8.640;2023-07-24T14:29:47;99100.84;;;20.62;100.00
46087;BME280;31824;49.648;8.640;2023-07-24T14:32:49;99112.53;;;20.66;100.00
46087;BME280;31824;49.648;8.640;2023-07-24T14:35:52;99112.72;;;20.46;100.00
46087;BME280;31824;49.648;8.640;2023-07-24T14:38:54;99116.31;;;20.47;100.00
46087;BME280;31824;49.648;8.640;2023-07-24T14:41:57;99125.78;;;20.88;100.00
46087;BME280;31824;49.648;8.640;2023-07-24T14:44:59;99155.13;;;20.88;100.00
46087;BME280;31824;49.648;8.640;2023-07-24T14:48:04;99146.31;;;22.02;100.00
46087;BME280;31824;49.648;8.640;2023-07-24T14:51:07;99136.47;;;22.01;100.00
46087;BME280;31824;49.648;8.640;2023-07-24T14:54:09;99127.94;;;21.55;100.00
46087;BME280;31824;49.648;8.640;2023-07-24T14:57:12;99122.66;;;21.56;100.00
46087;BME280;31824;49.648;8.640;2023-07-24T15:00:26;99123.63;;;21.58;100.00
46087;BME280;31824;49.648;8.640;2023-07-24T15:03:28;99125.00;;;21.47;100.00
46087;BME280;31824;49.648;8.640;2023-07-24T15:06:29;99128.97;;;21.58;100.00
46087;BME280;31824;49.648;8.640;2023-07-24T15:09:31;99123.34;;;21.80;100.00
46087;BME280;31824;49.648;8.640;2023-07-24T15:12:34;99107.34;;;21.81;100.00
46087;BME280;31824;49.648;8.640;2023-07-24T15:15:36;99100.56;;;21.92;100.00
46087;BME280;31824;49.648;8.640;2023-07-24T15:18:41;99108.25;;;22.12;100.00
46087;BME280;31824;49.648;8.640;2023-07-24T15:21:43;99114.16;;;22.00;100.00
46087;BME280;31824;49.648;8.640;2023-07-24T15:24:45;99106.38;;;22.09;100.00
46087;BME280;31824;49.648;8.640;2023-07-24T15:27:48;99113.38;;;22.04;100.00
46087;BME280;31824;49.648;8.640;2023-07-24T15:30:50;99101.34;;;21.88;100.00
46087;BME280;31824;49.648;8.640;2023-07-24T15:33:52;99111.16;;;21.89;100.00
46087;BME280;31824;49.648;8.640;2023-07-24T15:36:54;99110.66;;;21.72;100.00
46087;BME280;31824;49.648;8.640;2023-07-24T15:39:57;99114.72;;;21.88;100.00
46087;BME280;31824;49.648;8.640;2023-07-24T15:43:00;99117.66;;;21.98;100.00
46087;BME280;31824;49.648;8.640;2023-07-24T15:46:02;99128.84;;;21.84;100.00
46087;BME280;31824;49.648;8.640;2023-07-24T15:49:04;99127.59;;;21.73;100.00
46087;BME280;31824;49.648;8.640;2023-07-24T15:52:06;99119.00;;;21.53;100.00
46087;BME280;31824;49.648;8.640;2023-07-24T15:55:08;99121.03;;;21.62;100.00
46087;BME280;31824;49.648;8.640;2023-07-24T15:58:13;99126.44;;;21.36;100.00
46087;BME280;31824;49.648;8.640;2023-07-24T16:01:15;99150.22;;;21.01;100.00